world map with CAN marked

CAN - Airport

This information may not be accurate or current and is not valid for navigation or flight planning. No warranty of fitness for any purpose is made or implied.

flag of China

Donate via PayPal

Additional information is available on the NEW Great Circle Mapper

Location
City:  Guangzhou, Guangdong, China
Near (Alt.):Canton
Name:Baiyun
ICAO / IATA:ZGGG / CAN

Details
Type:Airport (Aerodrome, Airfield)
Use:Public/Civil
Latitude:23°24'N (23.393)
Longitude:113°18'E (113.308)
Elevation:49 ft (15 m)
Runways:3
Longest:12467 × 197 ft (3800 × 60 m)

Time
Timezone:UTC+8 (DST+10)
Local Time:

Weather
METAR:ZGGG  262130Z VRB01MPS 6000 NSC 28/25 Q1010 NOSIG
TAF:ZGGG  (expired)

Related Locations
Nearby:
Farthest:SCPE: 12346 mi / 19868 km
San Pedro de Atacama, AN, CL

Find:

   beyond  
but within

Other Information
Maps:
Sources:

  


 


Great Circle Mapper   Great Circle Mapper
Great Circle Mapper FAQ   Great Circle Mapper FAQ
  Karl's Home Page
KLSē   KLSē Home
   GC on Facebook
Airlines of the World   Airlines of the World
Donate via PayPal


Copyright © 2004-2017, Karl L. Swartz. All rights reserved.
All trademarks mentioned herein belong to their respective owners.

Please see credits for attribution and copyright information.

Karl Swartz <karl@kls2.com>
  Powered by FreeBSD
Valid HTML 4.01!
Labeled with ICRA
hCard Microformat
Geo Microformat